< < Back
Terminal Aerodrome Forecast


Current Version              Previous Versions:   1  2  3  4  5  6  7  8  9  

Terminal Aerodrome Forecast

687
FTUS42 KJAX 291259 AAA
TAFSSI
TAF AMD
KSSI 291259Z 2913/3012 30012G18KT P6SM SCT020
     FM292000 31009KT P6SM SCT040 SCT150
     FM300000 28006KT P6SM FEW040 SCT150=

Latest METAR

886
SAUS70 KWBC 291500 RRF
MTRSSI
METAR KSSI 291453Z AUTO 29012G21KT 10SM BKN027 BKN033 26/19 A3006 RMK
AO2 SLP179 T02560189 50003


USA.gov is the U.S. government's official web portal to all federal, state and local government web resources and services.